KABQ/ABQ METAR and TAF weather

Enter ICAO airport designator
Station Type Date Time Source
KABQ METAR 2019/08/19 11:52 UTC NOAA

KABQ 191152Z 02005KT 10SM SCT140 SCT230 20/02 A3015 RMK AO2 SLP114 T02000017 10267 20194 53010


Station Type Date Time Source
KABQ Decoded METAR 2019/08/19 11:52 UTC NOAA

Station name not available
Aug 19, 2019 - 07:52 AM EDT / 2019.08.19 1152 UTC
Wind: from the NNE (020 degrees) at 6 MPH (5 KT):0
Visibility: 10 mile(s):0
Sky conditions: partly cloudy
Temperature: 68.0 F (20.0 C)
Dew Point: 35.1 F (1.7 C)
Relative Humidity: 29%
Pressure (altimeter): 30.15 in. Hg (1020 hPa)
Pressure tendency: 0.03 inches (1.0 hPa) higher than three hours ago
ob: KABQ 191152Z 02005KT 10SM SCT140 SCT230 20/02 A3015 RMK AO2 SLP114 T02000017 10267 20194 53010
cycle: 12

Station Type Date Time Source
KABQ TAF 2019/08/19 12:42 UTC NOAA

TAF KABQ 191140Z 1912/2012 VRB04KT P6SM SCT150
FM191600 22006KT P6SM FEW150
FM200000 15010KT P6SM SCT130

Example: see airport list